Time;durP1;ratioP1;P1;durP2;ratioP2;P2;SDS_P1;SDS_P2;PMS_P1;PMS_P2;Temp;Humidity;BMP_temperature;BMP_pressure;BME280_temperature;BME280_humidity;BME280_pressure;Samples;Min_cycle;Max_cycle;Signal;HPM_P1;HPM_P2
2023/02/19 00:01:39;;;;;;;0.10;0.10;;;;;;;-7.52;75.11;98200.31;5105190;28;20043;-69
2023/02/19 00:04:08;;;;;;;0.10;0.10;;;;;;;-7.43;75.28;98212.38;5104332;28;20056;-69
2023/02/19 00:06:35;;;;;;;0.10;0.10;;;;;;;-7.40;74.99;98205.88;5084914;28;20426;-69
2023/02/19 00:09:02;;;;;;;0.10;0.10;;;;;;;-7.39;75.25;98198.75;5068379;28;20132;-69
2023/02/19 00:11:31;;;;;;;0.20;0.20;;;;;;;-7.37;74.89;98207.31;5084371;28;20533;-69
2023/02/19 00:13:59;;;;;;;0.10;0.10;;;;;;;-7.37;74.85;98196.69;5065009;28;20532;-68
2023/02/19 00:16:26;;;;;;;;;;;;;;;-7.41;74.70;98207.72;5084204;28;20044;-68
2023/02/19 00:18:53;;;;;;;0.10;0.10;;;;;;;-7.43;74.96;98193.78;5085331;28;20382;-68
2023/02/19 00:21:20;;;;;;;0.10;0.10;;;;;;;-7.38;74.89;98209.16;5084172;28;20324;-68
2023/02/19 00:23:48;;;;;;;0.20;0.20;;;;;;;-7.39;74.54;98206.72;5051272;28;20055;-68
2023/02/19 00:26:15;;;;;;;0.20;0.20;;;;;;;-7.40;74.70;98192.59;5066621;28;20054;-68
2023/02/19 00:28:42;;;;;;;0.13;0.13;;;;;;;-7.40;74.70;98203.22;5066640;28;20326;-68
2023/02/19 00:31:15;;;;;;;0.20;0.20;;;;;;;-7.42;74.91;98194.63;5082388;28;20079;-68
2023/02/19 00:33:41;;;;;;;0.10;0.10;;;;;;;-7.42;75.12;98195.44;5064715;28;20416;-68
2023/02/19 00:36:07;;;;;;;0.10;0.10;;;;;;;-7.41;74.99;98196.28;5083237;28;20387;-68
2023/02/19 00:38:36;;;;;;;0.10;0.10;;;;;;;-7.41;74.78;98189.13;5084622;28;20072;-69
2023/02/19 00:41:18;;;;;;;0.10;0.10;;;;;;;-7.40;75.17;98203.22;5066285;28;20048;-68
2023/02/19 00:43:48;;;;;;;0.10;0.10;;;;;;;-7.36;74.99;98187.72;5047635;28;20531;-69
2023/02/19 00:46:15;;;;;;;0.27;0.27;;;;;;;-7.37;74.92;98197.50;5082497;28;20056;-69
2023/02/19 00:48:41;;;;;;;0.10;0.10;;;;;;;-7.37;75.08;98181.56;5083725;28;20050;-68
2023/02/19 00:51:07;;;;;;;0.20;0.20;;;;;;;-7.34;74.76;98189.13;5081591;28;20079;-68
2023/02/19 00:53:33;;;;;;;0.30;0.30;;;;;;;-7.37;75.05;98180.75;5065552;28;20106;-68
2023/02/19 00:56:00;;;;;;;0.20;0.20;;;;;;;-7.45;75.22;98169.28;5081864;28;20044;-68
2023/02/19 00:58:26;;;;;;;0.13;0.13;;;;;;;-7.36;75.25;98180.56;5083612;28;20036;-68
2023/02/19 01:00:53;;;;;;;0.20;0.20;;;;;;;-7.46;75.30;98178.25;5049013;28;20593;-68
2023/02/19 01:03:21;;;;;;;0.20;0.20;;;;;;;-7.41;75.55;98183.00;5083420;28;20142;-68
2023/02/19 01:05:47;;;;;;;0.20;0.20;;;;;;;-7.46;75.43;98172.16;5068195;28;20603;-68
2023/02/19 01:08:14;;;;;;;0.10;0.10;;;;;;;-7.47;75.60;98165.19;5085285;28;20063;-68
2023/02/19 01:10:40;;;;;;;0.10;0.10;;;;;;;-7.50;75.70;98155.78;5085952;28;20507;-68
2023/02/19 01:13:06;;;;;;;0.20;0.20;;;;;;;-7.64;76.11;98127.53;5050963;28;20578;-69
2023/02/19 01:15:33;;;;;;;0.10;0.10;;;;;;;-7.42;76.23;98150.28;5082687;28;20384;-68
2023/02/19 01:18:00;;;;;;;0.20;0.20;;;;;;;-7.43;76.26;98150.50;5081716;28;20055;-68
2023/02/19 01:20:27;;;;;;;0.13;0.10;;;;;;;-7.41;76.37;98151.94;5083500;28;20044;-68
2023/02/19 01:22:53;;;;;;;0.20;0.10;;;;;;;-7.41;76.04;98145.81;5048382;28;20415;-68
2023/02/19 01:25:19;;;;;;;0.10;0.10;;;;;;;-7.48;76.05;98143.13;5047580;28;20056;-68
2023/02/19 01:27:45;;;;;;;0.20;0.20;;;;;;;-7.49;76.77;98143.31;5065174;28;20159;-68
2023/02/19 01:30:12;;;;;;;0.10;0.10;;;;;;;-7.49;76.49;98133.53;5084427;28;20040;-68
2023/02/19 01:32:38;;;;;;;0.10;0.10;;;;;;;-7.52;76.75;98125.13;5081934;28;20367;-68
2023/02/19 01:35:06;;;;;;;0.10;0.10;;;;;;;-7.56;76.64;98133.50;5063977;28;20048;-69
2023/02/19 01:37:32;;;;;;;0.10;0.10;;;;;;;-7.57;76.62;98128.38;5081065;28;20253;-68
2023/02/19 01:39:58;;;;;;;0.10;0.10;;;;;;;-7.58;76.63;98132.03;5082480;28;20048;-68
2023/02/19 01:42:25;;;;;;;0.20;0.20;;;;;;;-7.57;76.52;98125.72;5084189;28;20748;-68
2023/02/19 01:45:28;;;;;;;0.07;0.07;;;;;;;-7.62;76.17;98126.34;5102147;28;20065;-68
2023/02/19 01:48:02;;;;;;;0.13;0.13;;;;;;;-7.63;76.24;98123.88;5044603;28;20040;-68
2023/02/19 01:50:35;;;;;;;0.10;0.10;;;;;;;-7.66;76.28;98117.09;5065243;28;20056;-68
2023/02/19 01:53:06;;;;;;;0.07;0.07;;;;;;;-7.70;76.44;98122.00;5102430;28;20073;-68
2023/02/19 01:55:33;;;;;;;0.20;0.20;;;;;;;-7.69;76.76;98115.69;5088124;28;20047;-68
2023/02/19 01:58:01;;;;;;;0.10;0.10;;;;;;;-7.67;76.80;98119.97;5106815;28;20047;-68
2023/02/19 02:00:28;;;;;;;0.10;0.10;;;;;;;-7.66;76.93;98117.09;5090210;28;20054;-68
2023/02/19 02:02:57;;;;;;;0.15;0.15;;;;;;;-7.67;76.54;98106.69;5087406;28;20069;-68
2023/02/19 02:05:38;;;;;;;0.10;0.10;;;;;;;-7.64;76.59;98120.41;5071327;28;20044;-69
2023/02/19 02:10:49;;;;;;;0.10;0.10;;;;;;;-7.60;76.56;98124.28;5090915;28;20237;-68
2023/02/19 02:13:16;;;;;;;0.10;0.10;;;;;;;-7.60;76.58;98126.13;5087033;28;20566;-68
2023/02/19 02:16:16;;;;;;;0.10;0.10;;;;;;;-7.61;76.32;98129.78;5090336;28;20532;-68
2023/02/19 02:18:57;;;;;;;0.10;0.10;;;;;;;-7.64;76.29;98111.59;5086701;28;20050;-68
2023/02/19 02:21:52;;;;;;;0.10;0.10;;;;;;;-7.72;76.28;98121.41;5086444;28;20047;-69
2023/02/19 02:24:50;;;;;;;0.10;0.10;;;;;;;-7.72;76.23;98121.41;5084781;28;20039;-68
2023/02/19 02:27:23;;;;;;;;;;;;;;;-7.67;76.71;98119.97;5086811;28;20499;-69
2023/02/19 02:30:16;;;;;;;0.20;0.20;;;;;;;-7.69;76.55;98117.50;5088169;28;19927;-68
2023/02/19 02:32:52;;;;;;;0.10;0.10;;;;;;;-7.74;76.53;98101.38;5088237;28;20063;-68
2023/02/19 02:35:23;;;;;;;0.10;0.10;;;;;;;-7.70;76.51;98118.53;5070838;28;20395;-69
2023/02/19 02:37:53;;;;;;;1.70;0.20;;;;;;;-7.66;76.36;98111.78;5067593;28;20101;-68
2023/02/19 02:40:19;;;;;;;0.10;0.10;;;;;;;-7.63;76.47;98116.72;5069462;28;20095;-68
2023/02/19 02:42:46;;;;;;;0.10;0.10;;;;;;;-7.69;76.09;98107.72;5068937;28;20109;-69
2023/02/19 02:45:36;;;;;;;0.15;0.15;;;;;;;-7.80;76.38;98105.63;5053589;28;20044;-68
2023/02/19 02:48:34;;;;;;;0.10;0.10;;;;;;;-7.75;76.39;98105.84;5083594;28;20048;-68
2023/02/19 02:51:05;;;;;;;0.20;0.20;;;;;;;-7.83;76.42;98087.44;5050860;28;20142;-68
2023/02/19 02:56:29;;;;;;;0.10;0.10;;;;;;;-7.75;76.14;98102.38;5087433;28;20051;-68
2023/02/19 02:58:57;;;;;;;0.20;0.20;;;;;;;-7.76;76.14;98104.19;5104529;28;20039;-68
2023/02/19 03:04:18;;;;;;;0.10;0.10;;;;;;;-7.81;76.38;98098.69;5086303;28;19946;-68
2023/02/19 03:06:46;;;;;;;0.53;0.20;;;;;;;-7.83;76.29;98090.91;5069427;28;20395;-68
2023/02/19 03:09:19;;;;;;;0.20;0.20;;;;;;;-7.82;76.32;98094.38;5088077;28;20044;-68
2023/02/19 03:20:16;;;;;;;0.10;0.10;;;;;;;-7.97;76.87;98090.03;5084511;28;20043;-69
2023/02/19 03:22:45;;;;;;;0.20;0.20;;;;;;;-7.94;76.82;98082.69;5051121;28;20142;-69
2023/02/19 03:28:03;;;;;;;0.10;0.10;;;;;;;-7.91;77.15;98079.63;5068288;28;20116;-69
2023/02/19 03:30:32;;;;;;;0.20;0.20;;;;;;;-7.93;76.91;98071.91;5087542;28;20048;-69
2023/02/19 03:33:07;;;;;;;0.10;0.10;;;;;;;-7.88;76.84;98080.06;5048201;28;20481;-69
2023/02/19 03:35:37;;;;;;;0.13;0.13;;;;;;;-7.91;77.17;98080.47;5053910;28;20097;-68
2023/02/19 03:38:09;;;;;;;0.20;0.20;;;;;;;-7.86;77.02;98074.56;5066115;28;20117;-68
2023/02/19 03:40:43;;;;;;;0.10;0.10;;;;;;;-7.91;77.05;98072.50;5066988;28;20507;-69
2023/02/19 03:43:18;;;;;;;0.20;0.20;;;;;;;-7.90;77.72;98068.00;5065727;28;20054;-68
2023/02/19 03:45:52;;;;;;;0.20;0.20;;;;;;;-7.86;77.69;98061.31;5070047;28;20043;-68
2023/02/19 03:48:33;;;;;;;0.20;0.20;;;;;;;-7.83;77.58;98067.00;5084111;28;20460;-68
2023/02/19 03:51:19;;;;;;;0.17;0.17;;;;;;;-7.86;77.55;98062.13;5083620;28;20048;-69
2023/02/19 03:53:57;;;;;;;0.10;0.10;;;;;;;-7.85;77.80;98055.78;5049453;28;20142;-68
2023/02/19 03:56:29;;;;;;;0.08;0.08;;;;;;;-7.89;77.20;98056.38;5085736;28;20039;-68
2023/02/19 03:59:01;;;;;;;0.10;0.10;;;;;;;-7.82;77.59;98054.59;5081033;28;20048;-69
2023/02/19 04:01:37;;;;;;;0.10;0.10;;;;;;;-7.84;77.61;98044.16;5066436;28;20044;-69
2023/02/19 04:04:12;;;;;;;0.10;0.10;;;;;;;-7.82;77.31;98051.94;5084245;28;20048;-68
2023/02/19 04:06:41;;;;;;;0.10;0.10;;;;;;;-7.84;77.50;98064.59;5066301;28;20101;-68
2023/02/19 04:09:10;;;;;;;0.10;0.10;;;;;;;-7.90;77.64;98055.56;5049765;28;20519;-68
2023/02/19 04:11:38;;;;;;;0.10;0.10;;;;;;;-7.84;77.56;98054.78;5065845;28;20056;-68
2023/02/19 04:14:10;;;;;;;0.10;0.10;;;;;;;-7.81;77.46;98053.56;5066884;28;20400;-69
2023/02/19 04:16:39;;;;;;;0.10;0.10;;;;;;;-7.77;77.41;98060.09;5068424;28;20052;-67
2023/02/19 04:19:10;;;;;;;0.10;0.10;;;;;;;-7.77;76.98;98060.09;5087170;28;20048;-68
2023/02/19 04:21:38;;;;;;;0.10;0.10;;;;;;;-7.83;77.24;98056.41;5049768;28;20052;-67
2023/02/19 04:24:09;;;;;;;0.20;0.20;;;;;;;-7.81;77.50;98050.91;5084424;28;20044;-68
2023/02/19 04:26:35;;;;;;;0.10;0.10;;;;;;;-7.82;77.49;98049.28;5081538;28;20051;-67
2023/02/19 04:29:02;;;;;;;0.10;0.10;;;;;;;-7.83;77.41;98056.41;5062628;28;20074;-68
2023/02/19 04:31:30;;;;;;;0.10;0.10;;;;;;;-7.80;77.97;98055.19;5084088;28;20097;-68
2023/02/19 04:33:56;;;;;;;0.10;0.10;;;;;;;-7.78;77.56;98047.03;5082934;28;20048;-68
2023/02/19 04:36:23;;;;;;;0.10;0.10;;;;;;;-7.80;77.88;98043.75;5066202;28;20079;-68
2023/02/19 04:38:49;;;;;;;0.13;0.13;;;;;;;-7.81;77.66;98044.75;5082145;28;20048;-68
2023/02/19 04:41:16;;;;;;;0.10;0.10;;;;;;;-7.79;77.99;98046.22;5064984;28;20045;-68
2023/02/19 04:43:42;;;;;;;0.20;0.20;;;;;;;-7.79;77.93;98042.75;5062547;28;20056;-68
2023/02/19 04:46:08;;;;;;;0.20;0.20;;;;;;;-7.87;77.78;98041.91;5065401;28;20040;-68
2023/02/19 04:48:34;;;;;;;0.20;0.20;;;;;;;-7.86;78.01;98035.56;5084869;28;20054;-67
2023/02/19 04:51:04;;;;;;;0.20;0.20;;;;;;;-7.86;78.01;98045.38;5080328;28;20074;-67
2023/02/19 04:53:32;;;;;;;0.20;0.20;;;;;;;-7.89;78.15;98033.31;5061787;28;20045;-68
2023/02/19 04:56:05;;;;;;;0.20;0.20;;;;;;;-7.93;78.37;98034.75;5064049;28;20610;-67
2023/02/19 04:58:31;;;;;;;0.10;0.10;;;;;;;-7.90;78.48;98044.13;5062250;28;20131;-68
2023/02/19 05:00:57;;;;;;;0.20;0.20;;;;;;;-7.85;78.58;98034.56;5065231;28;20060;-67
2023/02/19 05:03:23;;;;;;;0.20;0.20;;;;;;;-7.84;78.16;98036.19;5062695;28;20056;-68
2023/02/19 05:05:49;;;;;;;0.17;0.17;;;;;;;-7.80;78.23;98022.50;5073379;28;20434;-69
2023/02/19 05:08:16;;;;;;;0.10;0.10;;;;;;;-7.78;78.08;98031.13;5063445;28;20060;-69
2023/02/19 05:10:43;;;;;;;0.10;0.10;;;;;;;-7.77;78.34;98036.22;5063230;28;20051;-69
2023/02/19 05:13:09;;;;;;;0.20;0.10;;;;;;;-7.74;78.29;98035.00;5077016;28;20468;-71
2023/02/19 05:15:35;;;;;;;0.10;0.10;;;;;;;-7.72;78.17;98027.66;5070889;28;20564;-70
2023/02/19 05:18:02;;;;;;;0.13;0.13;;;;;;;-7.70;78.11;98018.50;5062309;28;20040;-69
2023/02/19 05:20:28;;;;;;;0.17;0.17;;;;;;;-7.68;78.04;98020.91;5074855;28;20044;-70
2023/02/19 05:22:55;;;;;;;0.20;0.20;;;;;;;-7.65;77.92;98011.75;5073216;28;20139;-68
2023/02/19 05:25:21;;;;;;;0.10;0.10;;;;;;;-7.64;77.72;98022.19;5061651;28;20072;-69
2023/02/19 05:27:48;;;;;;;0.33;0.20;;;;;;;-7.60;77.91;98018.09;5084786;28;20059;-69
2023/02/19 05:30:14;;;;;;;0.10;0.10;;;;;;;-7.60;77.69;98011.97;4751347;28;9999632;-69
2023/02/19 05:32:40;;;;;;;0.10;0.10;;;;;;;-7.62;77.70;98014.84;5086190;28;20055;-69
2023/02/19 05:35:07;;;;;;;0.20;0.20;;;;;;;-7.58;77.86;98016.06;5093812;28;20060;-69
2023/02/19 05:37:33;;;;;;;0.10;0.10;;;;;;;-7.51;77.82;98010.75;5092373;28;20051;-69
2023/02/19 05:39:59;;;;;;;0.20;0.20;;;;;;;-7.50;77.52;98009.75;5087647;28;20147;-69
2023/02/19 05:42:25;;;;;;;0.10;0.10;;;;;;;-7.56;77.75;98008.69;5085529;28;20151;-69
2023/02/19 05:44:52;;;;;;;0.20;0.20;;;;;;;-7.68;77.66;97981.09;5089745;28;20102;-68
2023/02/19 05:47:18;;;;;;;0.10;0.10;;;;;;;-7.46;77.42;98007.50;5089620;28;20082;-69
2023/02/19 05:49:44;;;;;;;0.10;0.10;;;;;;;-7.46;77.46;98003.00;5089324;28;20456;-69
2023/02/19 05:52:11;;;;;;;0.20;0.20;;;;;;;-7.36;77.29;98004.44;5086849;28;20058;-69
2023/02/19 05:54:37;;;;;;;0.10;0.10;;;;;;;-7.56;76.68;97974.19;5091776;28;20052;-69
2023/02/19 05:57:03;;;;;;;0.10;0.10;;;;;;;-7.39;76.69;98005.66;5070381;28;20139;-69
2023/02/19 05:59:29;;;;;;;0.10;0.10;;;;;;;-7.43;76.70;97986.66;5059217;28;20133;-69
2023/02/19 06:01:57;;;;;;;0.20;0.20;;;;;;;-7.26;76.64;98004.84;5064641;28;20072;-69
2023/02/19 06:04:23;;;;;;;0.10;0.10;;;;;;;-7.18;76.34;98002.00;5082658;28;20100;-69
2023/02/19 06:06:49;;;;;;;0.10;0.10;;;;;;;-7.10;75.64;98008.13;5104602;28;20485;-69
2023/02/19 06:09:16;;;;;;;0.20;0.20;;;;;;;-7.15;75.16;97998.13;5075377;28;20043;-69
2023/02/19 06:11:42;;;;;;;0.20;0.20;;;;;;;-7.14;74.94;97989.13;5095949;28;20139;-69
2023/02/19 06:14:11;;;;;;;0.10;0.10;;;;;;;-7.10;75.19;97989.53;5081563;28;20050;-69
2023/02/19 06:16:37;;;;;;;0.20;0.20;;;;;;;-7.09;75.13;97986.69;5082483;28;20074;-69
2023/02/19 06:19:04;;;;;;;0.20;0.20;;;;;;;-7.03;75.06;97993.81;5070233;28;20514;-69
2023/02/19 06:21:31;;;;;;;0.20;0.20;;;;;;;-6.91;74.75;97998.53;5092530;28;20043;-69
2023/02/19 06:23:57;;;;;;;0.10;0.10;;;;;;;-6.88;74.33;97998.09;5100371;28;20055;-69
2023/02/19 06:26:24;;;;;;;0.10;0.10;;;;;;;-6.90;73.84;97994.84;5072291;28;20056;-69
2023/02/19 06:28:51;;;;;;;0.20;0.20;;;;;;;-6.87;74.07;98003.22;5083509;28;20062;-68
2023/02/19 06:31:19;;;;;;;0.20;0.20;;;;;;;-6.85;73.93;97987.09;5075171;28;20071;-69
2023/02/19 06:33:45;;;;;;;0.22;0.20;;;;;;;-6.71;73.87;97995.84;5088387;28;20039;-68
2023/02/19 06:36:17;;;;;;;0.20;0.20;;;;;;;-6.67;73.87;97993.59;5087075;28;20105;-69
2023/02/19 06:38:44;;;;;;;0.30;0.20;;;;;;;-6.62;74.18;97985.81;5055192;28;20043;-69
2023/02/19 06:41:10;;;;;;;0.10;0.10;;;;;;;-6.56;73.95;97987.63;5086982;28;20046;-69
2023/02/19 06:43:37;;;;;;;0.10;0.10;;;;;;;-6.49;73.03;97983.13;5091807;28;20261;-70
2023/02/19 06:46:05;;;;;;;0.10;0.10;;;;;;;-6.54;73.18;97977.63;5092931;28;20044;-69
2023/02/19 06:48:32;;;;;;;0.10;0.10;;;;;;;-6.59;73.24;97985.38;5096846;28;20035;-68
2023/02/19 06:50:58;;;;;;;0.10;0.10;;;;;;;-6.55;73.34;97982.09;5088220;28;20075;-69
2023/02/19 06:53:26;;;;;;;0.10;0.10;;;;;;;-6.64;73.23;97985.19;5099048;28;20044;-70
2023/02/19 06:55:54;;;;;;;;;;;;;;;-6.61;73.79;97976.81;5108302;28;20055;-69
2023/02/19 06:58:20;;;;;;;0.13;0.13;;;;;;;-6.41;73.86;97976.75;5085498;28;19930;-69
2023/02/19 07:00:46;;;;;;;0.10;0.10;;;;;;;-6.25;73.43;97977.31;5083361;28;20049;-69
2023/02/19 07:03:12;;;;;;;0.20;0.20;;;;;;;-6.18;73.35;97978.09;5096952;28;20047;-70
2023/02/19 07:05:38;;;;;;;0.10;0.10;;;;;;;-6.14;73.09;97977.47;5102557;28;20059;-70
2023/02/19 07:08:04;;;;;;;0.10;0.10;;;;;;;-6.04;73.10;97973.56;5091783;28;20071;-70
2023/02/19 07:10:34;;;;;;;0.20;0.20;;;;;;;-6.09;72.83;97971.53;5061667;28;20036;-70
2023/02/19 07:13:01;;;;;;;0.10;0.10;;;;;;;-6.02;73.02;97969.63;5073815;28;20460;-69
2023/02/19 07:15:29;;;;;;;0.10;0.10;;;;;;;-6.04;72.74;97953.06;5072464;28;20084;-68
2023/02/19 07:17:55;;;;;;;0.10;0.10;;;;;;;-6.07;72.32;97963.34;5088662;28;20051;-69
2023/02/19 07:20:21;;;;;;;0.20;0.20;;;;;;;-6.17;72.36;97961.09;5084041;28;20044;-68
2023/02/19 07:22:47;;;;;;;0.10;0.10;;;;;;;-6.12;72.00;97962.09;5083304;28;20118;-68
2023/02/19 07:25:14;;;;;;;0.10;0.10;;;;;;;-6.22;71.81;97961.75;5087303;28;20131;-68
2023/02/19 07:27:41;;;;;;;0.10;0.10;;;;;;;-6.39;72.38;97952.63;5087623;28;20147;-68
2023/02/19 07:30:09;;;;;;;0.20;0.20;;;;;;;-6.38;72.77;97962.22;5087899;28;20056;-68
2023/02/19 07:32:35;;;;;;;0.20;0.20;;;;;;;-6.50;71.28;97948.75;5064312;28;20491;-70
2023/02/19 07:35:01;;;;;;;0.20;0.20;;;;;;;-6.56;71.48;97950.41;5066139;28;20047;-69
2023/02/19 07:37:28;;;;;;;0.20;0.20;;;;;;;-6.45;71.79;97947.09;5072678;28;20407;-68
2023/02/19 07:39:55;;;;;;;0.10;0.10;;;;;;;-6.47;70.55;97945.69;5093287;28;20048;-69
2023/02/19 07:42:21;;;;;;;0.20;0.20;;;;;;;-6.63;71.42;97946.94;5049494;28;20172;-69
2023/02/19 07:44:48;;;;;;;0.10;0.10;;;;;;;-6.74;72.17;97948.41;5062677;28;20148;-69
2023/02/19 07:47:15;;;;;;;0.30;0.30;;;;;;;-6.80;72.51;97941.25;5081710;28;20051;-69
2023/02/19 07:49:41;;;;;;;0.20;0.20;;;;;;;-6.75;73.98;97941.47;5049633;28;20072;-68
2023/02/19 07:52:07;;;;;;;0.20;0.20;;;;;;;-6.73;73.82;97931.44;5070498;28;20082;-68
2023/02/19 07:54:34;;;;;;;0.10;0.10;;;;;;;-6.76;75.21;97943.28;5087210;28;20100;-69
2023/02/19 07:57:00;;;;;;;0.30;0.30;;;;;;;-6.88;75.65;97908.56;5091784;28;20059;-68
2023/02/19 07:59:26;;;;;;;0.17;0.17;;;;;;;-6.62;76.05;97932.63;5106521;28;20035;-68
2023/02/19 08:04:39;;;;;;;0.10;0.10;;;;;;;-6.57;75.17;97920.34;5072062;28;20048;-68
2023/02/19 08:07:05;;;;;;;0.20;0.20;;;;;;;-6.44;74.94;97922.13;5066408;28;20102;-68
2023/02/19 08:09:32;;;;;;;0.17;0.17;;;;;;;-6.35;74.31;97927.22;5066179;28;20048;-68
2023/02/19 08:14:43;;;;;;;0.20;0.20;;;;;;;-6.29;73.61;97916.56;5093884;28;20068;-69
2023/02/19 08:17:11;;;;;;;0.20;0.20;;;;;;;-6.23;74.24;97919.38;5102805;28;20703;-68
2023/02/19 08:19:37;;;;;;;0.10;0.10;;;;;;;-6.08;73.63;97919.94;5088078;28;20534;-68
2023/02/19 08:22:03;;;;;;;0.13;0.13;;;;;;;-5.99;72.93;97931.94;5105788;28;20039;-69
2023/02/19 08:24:32;;;;;;;0.20;0.20;;;;;;;-6.01;72.59;97917.22;5103872;28;20051;-70
2023/02/19 08:26:58;;;;;;;0.20;0.20;;;;;;;-6.02;71.69;97927.06;5103227;28;20074;-70
2023/02/19 08:29:25;;;;;;;0.20;0.20;;;;;;;-6.01;71.89;97920.69;5067440;28;20063;-70
2023/02/19 08:31:52;;;;;;;0.15;0.15;;;;;;;-6.01;71.60;97917.22;5086055;28;20071;-68
2023/02/19 08:34:19;;;;;;;0.10;0.10;;;;;;;-6.06;71.51;97903.75;5105031;28;20116;-68
2023/02/19 08:36:46;;;;;;;0.20;0.20;;;;;;;-6.05;71.58;97916.03;5103762;28;20573;-68
2023/02/19 08:39:12;;;;;;;0.20;0.20;;;;;;;-5.93;71.28;97918.78;5084130;28;20073;-68
2023/02/19 08:41:38;;;;;;;0.10;0.10;;;;;;;-6.06;70.28;97909.88;5070518;28;20506;-68
2023/02/19 08:44:04;;;;;;;0.10;0.10;;;;;;;-6.10;71.98;97910.50;5103383;28;20142;-68
2023/02/19 08:46:30;;;;;;;0.20;0.20;;;;;;;-6.16;72.24;97907.69;5087061;28;20105;-68
2023/02/19 08:48:56;;;;;;;0.20;0.20;;;;;;;-6.06;71.83;97912.53;5087189;28;20051;-68
2023/02/19 08:51:23;;;;;;;0.10;0.10;;;;;;;-6.19;72.48;97896.66;5101143;28;20043;-68
2023/02/19 08:53:50;;;;;;;0.10;0.10;;;;;;;-6.34;73.07;97912.91;5085299;28;20044;-68
2023/02/19 08:56:16;;;;;;;0.10;0.10;;;;;;;-6.49;73.65;97895.34;5086733;28;20083;-68
2023/02/19 08:58:43;;;;;;;0.20;0.20;;;;;;;-6.31;74.28;97893.84;5064604;28;20051;-69
2023/02/19 09:01:10;;;;;;;0.20;0.20;;;;;;;-6.24;73.37;97894.66;5083257;28;20048;-69
2023/02/19 09:03:36;;;;;;;0.13;0.13;;;;;;;-6.20;73.68;97895.84;5086089;28;20040;-69
2023/02/19 09:06:03;;;;;;;0.40;0.20;;;;;;;-6.24;73.37;97885.84;5071616;28;20489;-68
2023/02/19 09:08:30;;;;;;;0.20;0.20;;;;;;;-6.08;73.59;97893.31;5088154;28;20516;-68
2023/02/19 09:10:57;;;;;;;0.20;0.20;;;;;;;-6.00;72.99;97893.03;5087417;28;20451;-68
2023/02/19 09:13:24;;;;;;;0.20;0.20;;;;;;;-5.97;72.59;97889.13;5088214;28;20044;-68
2023/02/19 09:15:50;;;;;;;0.20;0.20;;;;;;;-5.98;72.51;97871.53;5091310;28;20130;-68
2023/02/19 09:18:16;;;;;;;0.10;0.10;;;;;;;-5.87;71.85;97897.47;5051875;28;20574;-68
2023/02/19 09:20:42;;;;;;;0.10;0.10;;;;;;;-5.94;71.07;97882.56;5108819;28;20150;-68
2023/02/19 09:23:08;;;;;;;0.20;0.20;;;;;;;-6.10;71.86;97878.56;5054332;28;20569;-68
2023/02/19 09:25:36;;;;;;;0.20;0.20;;;;;;;-6.12;72.37;97876.16;5088778;28;20062;-70
2023/02/19 09:28:02;;;;;;;0.13;0.13;;;;;;;-6.06;72.00;97885.94;5087889;28;20056;-72
2023/02/19 09:30:28;;;;;;;0.20;0.20;;;;;;;-6.17;72.16;97874.13;5108571;28;20042;-71
2023/02/19 09:32:54;;;;;;;0.10;0.10;;;;;;;-6.31;72.05;97875.22;5072984;28;20043;-71
2023/02/19 09:35:21;;;;;;;0.13;0.13;;;;;;;-6.32;73.23;97866.44;5091160;28;20051;-71
2023/02/19 09:37:47;;;;;;;0.20;0.20;;;;;;;-6.19;73.28;97864.72;5108955;28;20059;-68
2023/02/19 09:40:20;;;;;;;0.30;0.30;;;;;;;-6.29;73.00;97849.22;5089708;28;20055;-68
2023/02/19 09:42:50;;;;;;;0.73;0.30;;;;;;;-6.19;74.03;97873.53;5052898;28;20052;-68
2023/02/19 09:45:21;;;;;;;0.20;0.20;;;;;;;-6.09;73.70;97862.41;5070620;28;20040;-68
2023/02/19 09:47:48;;;;;;;0.20;0.20;;;;;;;-6.03;72.64;97858.88;5089211;28;20503;-68
2023/02/19 09:50:22;;;;;;;0.10;0.10;;;;;;;-5.95;72.96;97856.97;5071440;28;20044;-71
2023/02/19 09:52:53;;;;;;;0.13;0.13;;;;;;;-5.87;71.92;97852.19;5070798;28;20052;-68
2023/02/19 09:55:29;;;;;;;0.20;0.20;;;;;;;-5.71;71.06;97866.03;5081872;28;20372;-68
2023/02/19 09:57:59;;;;;;;0.20;0.20;;;;;;;-5.78;70.22;97846.59;5068833;28;20066;-68
2023/02/19 10:00:28;;;;;;;0.20;0.20;;;;;;;-5.96;70.81;97847.38;5070278;28;20452;-71
2023/02/19 10:03:04;;;;;;;0.20;0.20;;;;;;;-5.87;71.50;97838.06;5103102;28;20458;-68
2023/02/19 10:06:13;;;;;;;0.20;0.20;;;;;;;-5.76;70.93;97839.22;5108298;28;20039;-68
2023/02/19 10:08:40;;;;;;;0.20;0.20;;;;;;;-5.80;71.05;97833.53;5110579;28;20466;-68
2023/02/19 10:11:11;;;;;;;0.30;0.30;;;;;;;-5.76;70.74;97844.56;5108116;28;20066;-68
2023/02/19 10:13:41;;;;;;;0.30;0.30;;;;;;;-5.67;70.64;97845.91;5106838;28;20412;-68
2023/02/19 10:16:14;;;;;;;0.20;0.20;;;;;;;-5.70;70.36;97844.50;5088908;28;20521;-68
2023/02/19 10:18:42;;;;;;;0.20;0.20;;;;;;;-5.57;70.48;97845.41;5089664;28;20131;-68
2023/02/19 10:21:10;;;;;;;;;;;;;;;-5.61;69.53;97847.72;5109381;28;20059;-68
2023/02/19 10:23:39;;;;;;;0.17;0.17;;;;;;;-5.73;69.56;97841.47;5105954;28;19930;-68
2023/02/19 10:26:05;;;;;;;0.20;0.20;;;;;;;-5.67;69.95;97834.44;5065140;28;20052;-69
2023/02/19 10:28:33;;;;;;;0.10;0.10;;;;;;;-5.66;70.25;97831.56;5064283;28;20175;-68
2023/02/19 10:31:03;;;;;;;0.10;0.10;;;;;;;-5.56;70.86;97844.38;5068713;28;20047;-68
2023/02/19 10:33:29;;;;;;;0.10;0.10;;;;;;;-5.33;70.35;97845.63;5097221;28;20051;-71
2023/02/19 10:35:57;;;;;;;0.20;0.20;;;;;;;-5.34;69.67;97839.47;5086330;28;20069;-71
2023/02/19 10:38:27;;;;;;;0.20;0.20;;;;;;;-5.42;69.67;97842.44;5087395;28;20055;-70
2023/02/19 10:41:00;;;;;;;0.20;0.20;;;;;;;-5.42;69.67;97850.41;5099046;28;20176;-71
2023/02/19 10:43:32;;;;;;;0.20;0.20;;;;;;;-5.29;69.52;97844.97;5088111;28;20138;-70
2023/02/19 10:46:03;;;;;;;0.20;0.20;;;;;;;-5.14;68.36;97839.28;5094842;28;20043;-71
2023/02/19 10:48:32;;;;;;;0.20;0.20;;;;;;;-5.07;68.07;97844.53;5102600;28;20134;-71
2023/02/19 10:51:03;;;;;;;0.30;0.30;;;;;;;-5.03;68.42;97834.25;5108832;28;20067;-70
2023/02/19 10:53:42;;;;;;;0.20;0.20;;;;;;;-5.14;67.79;97833.94;5060928;28;20112;-68
2023/02/19 10:56:11;;;;;;;0.20;0.20;;;;;;;-5.26;68.29;97833.03;5086206;28;20059;-68
2023/02/19 10:58:41;;;;;;;0.20;0.20;;;;;;;-5.35;68.74;97835.19;5067947;28;20477;-68
2023/02/19 11:01:15;;;;;;;0.20;0.20;;;;;;;-5.28;69.55;97819.94;5067629;28;20579;-68
2023/02/19 11:03:42;;;;;;;0.20;0.20;;;;;;;-5.33;69.22;97822.44;5086804;28;20052;-69
2023/02/19 11:06:10;;;;;;;0.20;0.20;;;;;;;-5.27;70.03;97836.75;5077959;28;20536;-68
2023/02/19 11:08:47;;;;;;;0.20;0.20;;;;;;;-5.16;69.66;97837.84;5071784;28;20043;-68
2023/02/19 11:11:31;;;;;;;0.30;0.30;;;;;;;-5.04;69.12;97833.44;5067929;28;20044;-68
2023/02/19 11:13:58;;;;;;;0.20;0.20;;;;;;;-5.02;68.42;97825.22;5100838;28;20054;-69
2023/02/19 11:16:38;;;;;;;0.28;0.28;;;;;;;-5.04;68.38;97828.09;5101086;28;20047;-68
2023/02/19 11:19:04;;;;;;;0.30;0.30;;;;;;;-4.94;68.33;97824.91;5084388;28;20048;-68
2023/02/19 11:21:33;;;;;;;0.40;0.40;;;;;;;-4.42;67.74;97821.03;5086888;28;20046;-69
2023/02/19 11:24:02;;;;;;;0.43;0.43;;;;;;;-3.97;66.22;97805.59;4733779;28;9999761;-68
2023/02/19 11:26:34;;;;;;;0.50;0.50;;;;;;;-3.70;64.75;97814.00;5104063;28;20101;-71
2023/02/19 11:29:11;;;;;;;0.33;0.33;;;;;;;-3.58;63.24;97801.47;5083292;28;20056;-71
2023/02/19 11:31:38;;;;;;;0.40;0.40;;;;;;;-3.41;64.37;97814.16;5082805;28;20077;-71
2023/02/19 11:34:28;;;;;;;0.20;0.20;;;;;;;-3.02;63.19;97803.75;5064437;28;20111;-73
2023/02/19 11:37:08;;;;;;;0.20;0.20;;;;;;;-3.47;63.15;97815.06;5064844;28;20182;-72
2023/02/19 11:39:35;;;;;;;0.20;0.20;;;;;;;-4.06;63.03;97813.94;5061731;28;20121;-72
2023/02/19 11:42:27;;;;;;;0.20;0.20;;;;;;;-4.47;64.40;97813.69;5070684;28;20291;-70
2023/02/19 11:45:14;;;;;;;0.30;0.30;;;;;;;-4.65;65.31;97809.19;5077053;28;20043;-71
2023/02/19 11:48:01;;;;;;;0.10;0.10;;;;;;;-4.82;66.28;97806.34;5082598;28;20055;-69
2023/02/19 11:50:43;;;;;;;0.30;0.30;;;;;;;-5.01;66.69;97809.00;5072321;28;20046;-69
2023/02/19 11:53:18;;;;;;;0.20;0.20;;;;;;;-5.38;67.27;97808.97;5070780;28;20048;-68
2023/02/19 11:55:55;;;;;;;0.17;0.17;;;;;;;-5.45;67.79;97805.56;5091776;28;20405;-69
2023/02/19 11:58:36;;;;;;;;;;;;;;;-5.39;67.77;97812.69;5107270;28;20048;-70
2023/02/19 12:01:09;;;;;;;0.17;0.17;;;;;;;-5.45;68.05;97813.56;5087996;28;20030;-69
2023/02/19 12:03:53;;;;;;;0.10;0.10;;;;;;;-5.45;67.91;97798.38;5103896;28;20069;-67
2023/02/19 12:06:26;;;;;;;0.20;0.20;;;;;;;-5.46;67.73;97802.09;5094381;28;20070;-68
2023/02/19 12:09:19;;;;;;;0.20;0.20;;;;;;;-5.37;67.81;97805.28;5049403;28;20085;-70
2023/02/19 12:12:03;;;;;;;0.80;0.30;;;;;;;-5.34;67.33;97801.38;5085485;28;20052;-71